Withers Mill, Missouri
Current Conditions -  °F | °C
As of 2:35 AM on Thursday 27 Nov 2014 (Local Time) from KHAE Reporting Station
Haze Haze  
Wind Chill: 24°   Ceiling: 2100
Heat Index: 30°   Visibility: 5mi
Dew Point: 27°   Wind: 6mph
Humidity: 86%   Direction: 310°NW
Pressure: 30.38"   Gusts: NA
Location:  39.7865°N, 91.559°W
Report Text: KHAE 270835Z AUTO 31005KT 5SM BR SCT011 SCT014 OVC021 M01/M03 A3038 RMK AO2
Loading
Personal Weather Stations






























Interactive Weather Map New forecast layout! Learn more

10-Day Weather Forecast

Advertisements
Track Severe Weather on mobile